Latest Weather Observations for Strahan

IDT60801

Issued at 11:21 am EST Monday 24 June 2024 (issued every 10 minutes, with the page automatically refreshed every 10 minutes)

About weather observations | Map of weather stations | Latest weather observations for TAS | Other Formats
Station Details ID: 097072 Name: STRAHAN AERODROME Lat: -42.16 Lon: 145.29 Height: 21.0 m
Data from the previous 72 hours. | See also: Recent months at Strahan
Date/Time
EST
Temp
°C
App
Temp
°C
Dew
Point
°C
Rel
Hum
%
Delta-T
°C
Wind Press
QNH
hPa
Press
MSL
hPa
Rain since
9am
mm
Dir  Spd
km/h
Gust
km/h
Spd
kts
Gust
kts
24/11:00am 12.4 9.7 7.3 71 2.5 N 11 19 6 10 1014.9 1015.0 0.0
24/10:30am 11.0 8.9 6.6 74 2.1 N 7 11 4 6 1015.4 1015.5 0.0
24/10:00am 9.4 5.4 6.7 83 1.3 N 17 19 9 10 1015.5 1015.6 0.0
24/09:30am 7.2 4.5 5.8 91 0.6 NE 9 15 5 8 1015.5 1015.6 0.0
24/09:00am 6.5 4.3 5.3 92 0.5 SE 6 11 3 6 1015.7 1015.7 0.2
24/08:30am 7.1 4.8 5.7 91 0.6 ENE 7 13 4 7 1015.8 1015.8 0.2
24/08:00am 6.1 2.5 5.2 94 0.4 N 13 15 7 8 1016.0 1016.0 0.2
24/07:30am 5.6 2.0 5.0 96 0.3 NE 13 15 7 8 1016.2 1016.2 0.2
24/07:00am 4.3 1.6 3.7 96 0.2 ENE 7 11 4 6 1016.4 1016.4 0.2
24/06:30am 4.4 3.0 3.8 96 0.2 CALM 0 0 0 0 1016.6 1016.6 0.2
24/06:00am 4.4 3.0 3.8 96 0.2 CALM 0 0 0 0 1016.6 1016.6 0.2
24/05:30am 4.2 2.5 3.8 97 0.2 SE 2 7 1 4 1016.6 1016.6 0.2
24/05:00am 4.0 1.4 3.4 96 0.2 SE 6 7 3 4 1016.8 1016.8 0.2
24/04:30am 3.0 -0.3 2.4 96 0.2 SE 9 9 5 5 1017.1 1017.1 0.2
24/04:00am 3.1 1.1 2.5 96 0.2 NE 2 7 1 4 1017.5 1017.5 0.0
24/03:30am 2.5 -0.3 1.9 96 0.2 NE 6 9 3 5 1017.7 1017.7 0.0
24/03:00am 2.0 -0.9 1.4 96 0.2 E 6 7 3 4 1018.0 1018.0 0.0
24/02:36am 1.7 -1.4 1.1 96 0.2 E 7 9 4 5 1018.0 1018.0 0.0
24/02:30am 1.5 -2.1 0.9 96 0.2 E 9 11 5 6 1018.1 1018.1 0.0
24/02:17am 0.9 -2.8 0.2 95 0.3 ESE 9 13 5 7 1018.2 1018.2 0.0
24/02:00am 2.7 -0.7 2.0 95 0.3 N 9 9 5 5 1018.4 1018.4 0.0
24/01:30am 2.0 -1.1 1.3 95 0.3 NNE 7 9 4 5 1018.6 1018.6 0.0
24/01:00am 3.5 0.3 2.9 96 0.2 NNW 9 11 5 6 1018.7 1018.7 0.0
24/12:30am 3.3 0.6 2.4 94 0.4 N 6 7 3 4 1018.9 1018.9 0.0
24/12:00am 3.5 0.6 2.5 93 0.4 NNE 7 9 4 5 1019.3 1019.3 0.0
 
Date/Time
EST
Temp
°C
App
Temp
°C
Dew
Point
°C
Rel
Hum
%
Delta-T
°C
Wind Press
QNH
hPa
Press
MSL
hPa
Rain since
9am
mm
Dir  Spd
km/h
Gust
km/h
Spd
kts
Gust
kts
23/11:30pm 4.2 1.0 3.0 92 0.5 N 9 13 5 7 1019.8 1019.8 0.0
23/11:00pm 4.8 1.0 3.9 94 0.4 NNE 13 17 7 9 1020.2 1020.2 0.0
23/10:30pm 4.7 0.5 3.8 94 0.4 NNE 15 17 8 9 1020.5 1020.5 0.0
23/10:00pm 5.1 1.4 4.4 95 0.3 NNE 13 15 7 8 1020.7 1020.7 0.0
23/09:30pm 5.0 1.7 4.4 96 0.3 NNE 11 15 6 8 1021.0 1021.0 0.0
23/09:00pm 4.6 1.9 3.9 95 0.3 NE 7 9 4 5 1021.2 1021.2 0.0
23/08:32pm 4.5 1.8 3.8 95 0.3 NE 7 7 4 4 1021.4 1021.4 0.0
23/08:30pm 4.5 2.0 3.8 95 0.3 NE 6 7 3 4 1021.4 1021.4 0.0
23/08:14pm 4.1 2.6 3.2 94 0.4 CALM 0 0 0 0 1021.5 1021.5 0.0
23/08:00pm 4.7 3.3 3.8 94 0.4 CALM 0 6 0 3 1021.7 1021.7 0.0
23/07:30pm 5.8 3.3 4.9 94 0.4 NNE 7 9 4 5 1021.7 1021.7 0.0
23/07:00pm 5.4 2.8 4.4 93 0.4 NNE 7 9 4 5 1021.7 1021.7 0.0
23/06:30pm 6.0 3.5 4.8 92 0.5 NNE 7 9 4 5 1021.7 1021.7 0.0
23/06:00pm 5.9 3.9 4.2 89 0.7 ESE 4 6 2 3 1021.8 1021.8 0.0
23/05:30pm 7.0 4.7 5.0 87 0.9 ESE 6 7 3 4 1022.0 1022.0 0.0
23/05:00pm 8.2 6.0 5.3 82 1.3 ESE 6 7 3 4 1022.2 1022.2 0.0
23/04:30pm 9.5 7.2 5.9 78 1.7 ESE 7 7 4 4 1022.4 1022.4 0.0
23/04:00pm 10.8 9.3 6.7 76 1.9 ESE 4 6 2 3 1022.6 1022.6 0.0
23/03:30pm 11.2 9.3 6.7 74 2.1 SE 6 7 3 4 1022.8 1022.8 0.0
23/03:00pm 11.4 9.6 7.1 75 2.0 SSE 6 11 3 6 1023.2 1023.2 0.0
23/02:30pm 11.2 8.8 6.9 75 2.0 SE 9 13 5 7 1023.4 1023.4 0.0
23/02:00pm 11.2 8.7 6.7 74 2.1 SE 9 11 5 6 1023.6 1023.6 0.0
23/01:30pm 11.8 10.3 8.3 79 1.7 SSE 6 9 3 5 1023.8 1023.8 0.0
23/01:00pm 11.1 9.5 8.0 81 1.5 SSE 6 7 3 4 1024.1 1024.1 0.0
23/12:30pm 10.2 8.3 7.4 83 1.3 SSE 7 13 4 7 1024.7 1024.7 0.0
23/12:00pm 9.8 7.9 7.6 86 1.0 SE 7 9 4 5 1025.1 1025.1 0.0
23/11:30am 9.1 7.2 7.5 90 0.8 SE 7 11 4 6 1025.6 1025.6 0.0
23/11:00am 8.0 6.1 6.9 93 0.5 ESE 6 7 3 4 1026.0 1026.0 0.0
23/10:30am 7.2 5.3 6.5 95 0.3 NE 6 7 3 4 1026.6 1026.6 0.0
23/10:00am 6.7 5.9 6.3 97 0.2 CALM 0 0 0 0 1026.7 1026.7 0.0
23/09:30am 5.1 3.9 4.7 97 0.2 CALM 0 0 0 0 1026.7 1026.7 0.0
23/09:00am 3.3 1.4 2.9 97 0.2 NNE 2 6 1 3 1026.8 1026.8 0.2
23/08:30am 3.8 0.7 3.5 98 0.1 NNE 9 9 5 5 1027.0 1027.0 0.2
23/08:00am 1.1 -1.9 0.7 97 0.1 NNE 6 7 3 4 1027.0 1027.0 0.2
23/07:51am 1.6 -1.5 1.2 97 0.2 NNE 7 9 4 5 1027.0 1027.0 0.2
23/07:30am 2.2 0.5 1.9 98 0.1 CALM 0 0 0 0 1027.0 - 0.2
23/07:16am 1.6 -1.0 1.2 97 0.2 NNE 4 7 2 4 1027.0 - 0.2
23/07:00am 2.5 -0.5 2.1 97 0.2 NNE 7 7 4 4 1027.0 1027.0 0.2
23/06:30am 3.4 0.6 3.1 98 0.1 NNE 7 9 4 5 1026.8 1026.8 0.2
23/06:00am 1.7 -1.4 1.3 97 0.2 NNE 7 11 4 6 1026.7 1026.7 0.2
23/05:30am 2.3 -1.1 2.0 98 0.1 NNE 9 9 5 5 1026.7 1026.7 0.2
23/05:01am 1.0 -2.0 0.6 97 0.1 NNE 6 9 3 5 1026.8 1026.8 0.2
23/05:00am 1.2 -1.8 0.8 97 0.1 NNE 6 9 3 5 1026.8 1026.8 0.2
23/04:30am 2.2 -0.6 1.8 97 0.2 NNE 6 7 3 4 1027.0 1027.0 0.2
23/04:06am 2.7 1.1 2.3 97 0.2 CALM 0 0 0 0 1027.3 1027.3 0.2
23/04:00am 3.4 1.9 3.1 98 0.1 CALM 0 0 0 0 1027.4 1027.4 0.2
23/03:30am 2.8 -0.1 2.4 97 0.2 NNE 7 9 4 5 1027.5 1027.5 0.2
23/03:20am 3.0 0.1 2.6 97 0.2 NNE 7 11 4 6 1027.6 - 0.2
23/03:16am 4.4 1.4 4.1 98 0.1 NNE 9 11 5 6 1027.6 1027.6 0.2
23/03:04am 3.3 0.1 3.0 98 0.1 NNE 9 11 5 6 1027.7 1027.7 0.2
23/03:00am 3.6 0.8 3.3 98 0.1 NNE 7 11 4 6 1027.8 1027.8 0.2
23/02:34am 3.1 0.8 2.7 97 0.2 NNE 4 7 2 4 1028.0 1028.0 0.2
23/02:33am 3.3 1.0 2.9 97 0.2 NNE 4 7 2 4 1028.0 1028.0 0.2
23/02:30am 3.4 1.5 3.0 97 0.2 NNE 2 7 1 4 1028.0 1028.0 0.2
23/02:21am 3.5 2.0 3.1 97 0.2 CALM 0 0 0 0 1028.1 1028.1 0.2
23/02:00am 3.6 2.2 3.3 98 0.1 CALM 0 4 0 2 1028.1 1028.1 0.2
23/01:52am 3.0 0.7 2.6 97 0.2 NNE 4 7 2 4 1028.1 1028.1 0.2
23/01:30am 2.8 1.2 2.4 97 0.2 CALM 0 0 0 0 1028.1 1028.1 0.2
23/01:00am 2.9 0.2 2.5 97 0.2 NNE 6 7 3 4 1028.2 1028.2 0.2
23/12:50am 2.5 -0.3 2.1 97 0.2 NNE 6 7 3 4 1028.3 - 0.2
23/12:45am 2.6 -0.4 2.0 96 0.2 NNE 7 9 4 5 1028.3 1028.3 0.2
23/12:30am 3.6 0.8 3.2 97 0.2 NNE 7 7 4 4 1028.4 1028.4 0.2
23/12:28am 3.6 0.8 3.0 96 0.2 NNE 7 7 4 4 1028.5 1028.5 0.2
23/12:25am 3.6 0.8 3.0 96 0.2 NNE 7 7 4 4 1028.5 1028.5 0.2
23/12:24am 3.8 1.0 3.2 96 0.2 NNE 7 9 4 5 1028.5 1028.5 0.2
23/12:11am 4.9 2.4 4.5 97 0.2 NNE 7 9 4 5 1028.6 1028.6 0.2
23/12:00am 4.4 1.9 4.0 97 0.2 NNE 6 7 3 4 1028.8 1028.8 0.2
 
Date/Time
EST
Temp
°C
App
Temp
°C
Dew
Point
°C
Rel
Hum
%
Delta-T
°C
Wind Press
QNH
hPa
Press
MSL
hPa
Rain since
9am
mm
Dir  Spd
km/h
Gust
km/h
Spd
kts
Gust
kts
22/11:30pm 4.7 3.4 4.3 97 0.2 CALM 0 0 0 0 1029.0 1029.0 0.0
22/11:00pm 4.3 3.0 3.9 97 0.2 CALM 0 0 0 0 1029.2 1029.2 0.0
22/10:30pm 4.9 3.6 4.3 96 0.3 CALM 0 0 0 0 1029.3 1029.3 0.0
22/10:25pm 4.7 3.4 4.1 96 0.3 CALM 0 0 0 0 1029.3 1029.3 0.0
22/10:05pm 5.6 4.5 5.0 96 0.3 CALM 0 0 0 0 1029.2 - 0.0
22/10:00pm 5.7 4.6 5.1 96 0.3 CALM 0 0 0 0 1029.2 1029.2 0.0
22/09:46pm 5.6 4.5 5.0 96 0.3 CALM 0 0 0 0 1029.3 - 0.0
22/09:36pm 5.5 4.4 4.9 96 0.3 CALM 0 0 0 0 1029.3 - 0.0
22/09:30pm 5.6 4.5 4.9 95 0.3 CALM 0 0 0 0 1029.3 - 0.0
22/09:00pm 6.7 5.8 6.0 95 0.3 CALM 0 0 0 0 1029.1 1029.1 0.0
22/08:30pm 6.5 5.5 5.8 95 0.3 CALM 0 0 0 0 1029.0 - 0.0
22/08:00pm 7.1 5.9 6.4 95 0.3 NNE 2 6 1 3 1029.0 1029.0 0.0
22/07:30pm 7.1 5.1 6.4 95 0.3 NNE 6 7 3 4 1028.8 1028.8 0.0
22/07:00pm 7.2 5.3 6.5 95 0.3 NNE 6 7 3 4 1028.7 1028.7 0.0
22/06:44pm 7.6 5.7 6.9 95 0.3 NNE 6 7 3 4 1028.7 - 0.0
22/06:30pm 7.7 5.7 7.0 95 0.3 NNE 7 9 4 5 1028.6 1028.6 0.0
22/06:17pm 7.4 5.8 6.5 94 0.4 N 4 7 2 4 1028.5 1028.5 0.0
22/06:00pm 7.5 6.7 6.6 94 0.4 CALM 0 0 0 0 1028.5 1028.5 0.0
22/05:30pm 7.5 6.7 6.4 93 0.5 CALM 0 0 0 0 1028.6 - 0.0
22/05:00pm 8.5 7.8 6.8 89 0.8 CALM 0 0 0 0 1028.7 1028.7 0.0
22/04:30pm 10.3 9.1 7.9 85 1.2 WSW 4 6 2 3 1028.5 1028.5 0.0
22/04:00pm 11.8 10.3 8.5 80 1.6 WSW 6 9 3 5 1028.6 1028.6 0.0
22/03:30pm 11.7 11.3 8.4 80 1.6 CALM 0 0 0 0 1028.6 1028.6 0.0
22/03:00pm 11.6 9.9 8.3 80 1.6 ESE 7 11 4 6 1028.7 1028.7 0.0
22/02:34pm 12.0 10.5 9.0 82 1.5 E 7 9 4 5 1028.6 - 0.0
22/02:30pm 11.9 10.3 8.9 82 1.5 E 7 9 4 5 1028.6 - 0.0
22/02:22pm 11.6 9.9 8.5 81 1.5 ESE 7 11 4 6 1028.7 1028.7 0.0
22/02:10pm 12.0 10.5 9.0 82 1.5 ESE 7 11 4 6 1028.8 1028.8 0.0
22/02:03pm 11.9 10.5 8.7 81 1.6 ESE 6 9 3 5 1028.8 1028.8 0.0
22/02:00pm 11.8 10.3 8.6 81 1.6 ESE 6 9 3 5 1028.8 1028.8 0.0
22/01:43pm 11.8 10.7 8.6 81 1.6 WNW 4 7 2 4 1028.9 1028.9 0.0
22/01:30pm 11.9 10.5 8.9 82 1.5 N 6 9 3 5 1028.9 1028.9 0.0
22/01:24pm 11.7 10.3 8.9 83 1.4 N 6 9 3 5 1029.0 1029.0 0.0
22/01:05pm 11.3 9.7 8.2 81 1.5 N 6 11 3 6 1029.1 1029.1 0.0
22/01:00pm 11.7 10.3 8.7 82 1.5 N 6 11 3 6 1029.2 1029.2 0.0
22/12:30pm 11.0 9.8 8.1 82 1.4 N 4 7 2 4 1029.4 1029.4 0.0
22/12:26pm 11.1 9.9 8.0 81 1.5 N 4 7 2 4 1029.5 1029.5 0.0
22/12:07pm 11.5 9.6 8.9 84 1.3 NE 9 13 5 7 1029.7 1029.7 0.0
22/12:00pm 10.5 8.4 8.3 86 1.1 NE 9 13 5 7 1029.7 1029.7 0.0
22/11:54am 10.4 8.2 8.0 85 1.2 NE 9 13 5 7 1029.8 1029.8 0.0
22/11:30am 10.7 7.8 8.3 85 1.2 NNE 13 20 7 11 1029.9 1029.9 0.0
22/11:00am 9.7 7.2 8.3 91 0.7 NNE 11 15 6 8 1030.2 1030.2 0.0
22/10:46am 9.2 7.4 8.0 92 0.6 NE 7 11 4 6 1030.3 1030.3 0.0
22/10:30am 8.8 6.5 7.4 91 0.7 NNE 9 11 5 6 1030.4 1030.4 0.0
22/10:23am 8.7 6.7 7.2 90 0.7 NNE 7 11 4 6 1030.4 1030.4 0.0
22/10:10am 8.7 6.9 7.0 89 0.8 ENE 6 9 3 5 1030.4 1030.4 0.0
22/10:00am 8.7 6.8 6.8 88 0.9 E 6 9 3 5 1030.5 1030.5 0.0
22/09:52am 8.8 6.9 6.6 86 1.0 ENE 6 9 3 5 1030.5 1030.5 0.0
22/09:30am 8.4 5.8 6.2 86 1.0 NNE 9 11 5 6 1030.3 1030.3 0.0
22/09:00am 8.0 6.7 5.8 86 1.0 NE 2 6 1 3 1030.3 1030.3 0.2
22/08:30am 7.7 6.3 5.3 85 1.1 NE 2 7 1 4 1030.1 1030.1 0.2
22/08:00am 7.7 4.2 5.3 85 1.1 NNE 13 19 7 10 1029.9 1029.9 0.2
22/07:30am 7.1 6.0 5.3 88 0.8 CALM 0 6 0 3 1029.7 1029.7 0.2
22/07:00am 7.1 4.3 5.3 88 0.8 NE 9 13 5 7 1029.3 1029.3 0.2
22/06:30am 7.0 3.8 5.2 88 0.8 NNE 11 15 6 8 1029.0 1029.0 0.2
22/06:00am 7.2 4.0 5.3 88 0.8 NNE 11 15 6 8 1028.9 1028.9 0.2
22/05:30am 7.0 4.3 5.5 90 0.7 NNE 9 13 5 7 1028.6 1028.6 0.2
22/05:00am 6.7 4.0 5.5 92 0.5 N 9 11 5 6 1028.4 1028.4 0.2
22/04:30am 6.7 4.4 5.5 92 0.5 NNE 7 9 4 5 1028.3 1028.3 0.2
22/04:00am 6.6 4.2 5.2 91 0.6 NNE 7 11 4 6 1028.4 1028.4 0.2
22/03:30am 6.8 4.4 5.4 91 0.6 NE 7 9 4 5 1028.4 1028.4 0.2
22/03:00am 6.6 5.2 5.4 92 0.5 SSE 2 7 1 4 1028.5 1028.5 0.2
22/02:30am 6.8 5.8 5.7 93 0.5 CALM 0 4 0 2 1028.8 1028.8 0.2
22/02:00am 6.6 3.9 5.6 93 0.4 N 9 11 5 6 1028.6 1028.6 0.2
22/01:30am 6.7 4.6 5.8 94 0.4 NE 6 11 3 6 1028.4 1028.4 0.2
22/01:00am 6.4 4.1 5.5 94 0.4 N 7 9 4 5 1028.4 1028.4 0.2
22/12:30am 6.4 4.1 5.7 95 0.3 N 7 9 4 5 1028.3 1028.3 0.2
22/12:00am 6.7 4.5 6.1 96 0.3 N 7 9 4 5 1028.4 1028.4 0.2
 
Date/Time
EST
Temp
°C
App
Temp
°C
Dew
Point
°C
Rel
Hum
%
Delta-T
°C
Wind Press
QNH
hPa
Press
MSL
hPa
Rain since
9am
mm
Dir  Spd
km/h
Gust
km/h
Spd
kts
Gust
kts
21/11:30pm 6.0 4.6 5.3 95 0.3 N 2 6 1 3 1028.5 1028.5 0.2
21/11:00pm 6.2 3.9 5.6 96 0.3 N 7 9 4 5 1028.3 1028.3 0.2
21/10:30pm 6.3 4.0 5.7 96 0.3 N 7 9 4 5 1028.1 1028.1 0.2
21/10:00pm 5.9 3.7 5.3 96 0.3 NNE 6 9 3 5 1027.9 1027.9 0.2
21/09:30pm 5.9 3.7 5.3 96 0.3 NNE 6 7 3 4 1027.8 1027.8 0.2
21/09:00pm 6.1 4.3 5.5 96 0.3 S 4 9 2 5 1027.4 1027.4 0.2
21/08:30pm 5.2 4.0 4.5 95 0.3 CALM 0 0 0 0 1027.1 1027.1 0.2
21/08:00pm 5.6 4.4 4.7 94 0.4 CALM 0 0 0 0 1026.8 1026.8 0.2
21/07:30pm 6.1 3.9 5.2 94 0.4 S 6 7 3 4 1026.7 - 0.2
21/07:00pm 5.9 3.0 4.9 93 0.4 S 9 11 5 6 1026.4 1026.4 0.2
21/06:30pm 6.1 4.9 4.7 91 0.6 CALM 0 4 0 2 1026.0 1026.0 0.2
21/06:00pm 7.5 5.2 5.8 89 0.8 ESE 7 9 4 5 1025.7 1025.7 0.2
21/05:30pm 7.9 5.3 5.9 87 0.9 SSE 9 13 5 7 1025.5 1025.5 0.2
21/05:00pm 8.0 6.6 5.3 83 1.2 SSE 2 7 1 4 1025.1 1025.1 0.2
21/04:30pm 9.3 6.6 5.7 78 1.6 SSE 9 11 5 6 1024.9 - 0.2
21/04:00pm 10.7 7.4 6.3 74 2.0 SSE 13 17 7 9 1024.5 1024.5 0.2
21/03:30pm 11.3 7.5 5.6 68 2.6 SSE 15 17 8 9 1024.1 1024.1 0.2
21/03:00pm 11.4 8.0 5.7 68 2.6 SSE 13 17 7 9 1024.0 1024.0 0.2
21/02:30pm 11.5 8.0 5.6 67 2.7 SSE 13 19 7 10 1023.7 - 0.2
21/02:00pm 11.4 7.4 5.1 65 2.9 SSE 15 20 8 11 1023.6 1023.6 0.2
21/01:30pm 11.1 7.3 5.6 69 2.5 SE 15 19 8 10 1023.6 1023.6 0.2
21/01:00pm 10.8 7.2 4.9 67 2.7 SSE 13 19 7 10 1023.7 1023.7 0.2
21/12:30pm 9.9 7.6 5.5 74 2.0 ESE 7 11 4 6 1023.7 1023.7 0.2
21/12:00pm 9.1 5.6 5.3 77 1.7 SSE 13 17 7 9 1024.1 1024.1 0.2
21/11:30am 9.1 6.9 6.0 81 1.4 S 7 11 4 6 1024.2 1024.2 0.2

Other formats

Comma delimited format used in spreadsheet applications
http://www.bom.gov.au/fwo/IDT60801/IDT60801.94956.axf

JavaScript Object Notation format (JSON) in row-major order
http://www.bom.gov.au/fwo/IDT60801/IDT60801.94956.json

Data quality

Most of these data are generated automatically and are frequently updated. Quality checks on data are not normally performed. It is possible for incorrect values to appear. Refer to information at About Latest Weather Observations and please check the disclaimer before using these data.